Time;durP1;ratioP1;P1;durP2;ratioP2;P2;SDS_P1;SDS_P2;PMS_P1;PMS_P2;Temp;Humidity;BMP_temperature;BMP_pressure;BME280_temperature;BME280_humidity;BME280_pressure;Samples;Min_cycle;Max_cycle;Signal;HPM_P1;HPM_P2
2022/07/13 00:04:22;;;;;;;2.70;0.50;;;;;;;14.92;56.67;99503.89;435729;1268;72886;-57
2022/07/13 00:14:29;;;;;;;0.90;0.70;;;;;;;14.83;57.63;99497.68;434659;1268;69432;-57
2022/07/13 00:24:34;;;;;;;1.30;1.10;;;;;;;14.72;58.46;99492.42;434760;1268;73156;-56
2022/07/13 00:34:40;;;;;;;2.10;0.90;;;;;;;14.53;59.23;99486.21;434288;1266;60572;-56
2022/07/13 00:44:46;;;;;;;4.70;1.40;;;;;;;14.25;59.89;99478.27;434292;1266;60808;-56
2022/07/13 00:54:52;;;;;;;1.10;0.80;;;;;;;14.01;60.93;99475.45;434330;1268;72713;-57
2022/07/13 01:05:00;;;;;;;1.90;0.90;;;;;;;13.90;61.81;99475.95;440826;1266;68318;-57
2022/07/13 01:15:07;;;;;;;1.30;1.10;;;;;;;13.75;62.46;99472.07;434806;1266;71602;-54
2022/07/13 01:25:15;;;;;;;1.50;0.80;;;;;;;13.54;63.30;99471.18;434988;1267;60968;-55
2022/07/13 01:35:22;;;;;;;1.20;1.10;;;;;;;13.37;64.35;99460.52;434470;1267;61368;-57
2022/07/13 01:45:28;;;;;;;1.10;1.00;;;;;;;13.32;65.43;99458.08;434791;1267;74143;-57
2022/07/13 01:55:34;;;;;;;4.50;1.80;;;;;;;13.25;66.17;99451.08;434018;1267;69740;-57
2022/07/13 02:05:40;;;;;;;1.20;1.10;;;;;;;13.21;67.20;99448.92;434071;1268;70538;-56
2022/07/13 02:15:46;;;;;;;3.10;1.30;;;;;;;13.20;67.94;99445.12;441806;1266;60571;-56
2022/07/13 02:25:52;;;;;;;2.40;2.20;;;;;;;13.16;68.45;99440.83;439262;1266;60583;-57
2022/07/13 02:35:58;;;;;;;2.80;1.40;;;;;;;13.12;69.17;99434.30;434347;1266;72836;-53
2022/07/13 02:46:04;;;;;;;2.00;1.80;;;;;;;13.15;69.73;99437.10;434837;1267;70212;-54
2022/07/13 02:56:10;;;;;;;3.90;1.90;;;;;;;13.18;70.15;99430.82;434136;1267;72696;-56
2022/07/13 03:06:16;;;;;;;3.30;1.50;;;;;;;13.26;70.63;99430.99;434471;1267;60574;-56
2022/07/13 03:16:22;;;;;;;1.70;1.60;;;;;;;13.63;71.36;99426.48;434226;1267;60638;-56
2022/07/13 03:26:28;;;;;;;1.10;1.10;;;;;;;17.34;68.28;99423.84;434233;1265;73967;-55
2022/07/13 03:36:34;;;;;;;2.90;1.20;;;;;;;18.36;62.51;99418.33;434146;1267;68153;-58
2022/07/13 03:46:41;;;;;;;1.70;1.50;;;;;;;16.31;63.73;99420.92;434251;1267;72116;-56
2022/07/13 03:56:47;;;;;;;2.70;1.10;;;;;;;15.44;65.74;99417.83;434156;1268;60688;-55
2022/07/13 04:06:52;;;;;;;1.50;1.30;;;;;;;15.53;66.70;99424.09;433776;1268;60787;-54
2022/07/13 04:16:58;;;;;;;1.50;1.20;;;;;;;21.12;62.96;99435.30;433591;1267;72814;-56
2022/07/13 04:27:04;;;;;;;1.10;0.70;;;;;;;27.75;52.06;99438.63;433942;1267;68986;-56
2022/07/13 04:37:10;;;;;;;1.70;0.80;;;;;;;31.82;43.81;99423.90;433789;1266;72181;-57
2022/07/13 04:47:16;;;;;;;1.80;1.00;;;;;;;33.17;38.82;99418.08;433857;1266;60627;-58
2022/07/13 04:57:20;;;;;;;;;;;;;;;34.69;35.85;99411.84;433932;1266;60565;-56
2022/07/13 05:07:26;;;;;;;2.50;1.00;;;;;;;35.66;32.87;99406.82;434105;1268;72739;-56
2022/07/13 05:17:32;;;;;;;2.20;1.00;;;;;;;36.61;30.71;99399.82;433965;1268;68663;-56
2022/07/13 05:27:38;;;;;;;1.40;1.00;;;;;;;37.99;29.52;99403.80;434270;1267;71343;-56
2022/07/13 05:37:44;;;;;;;4.60;1.50;;;;;;;39.19;27.91;99404.29;434293;1267;60577;-56
2022/07/13 05:47:49;;;;;;;4.70;0.80;;;;;;;40.36;26.04;99405.20;434341;1267;60843;-59
2022/07/13 05:57:55;;;;;;;1.50;0.90;;;;;;;39.28;24.91;99410.16;435314;1267;64007;-57
2022/07/13 06:08:01;;;;;;;3.60;1.20;;;;;;;39.63;25.56;99416.29;435053;1267;68471;-58
2022/07/13 06:18:08;;;;;;;1.30;0.90;;;;;;;40.97;23.98;99420.34;435071;1267;63389;-56
2022/07/13 06:28:14;;;;;;;3.90;1.30;;;;;;;42.88;22.81;99429.65;434921;1268;60519;-57
2022/07/13 06:38:20;;;;;;;2.30;0.90;;;;;;;44.20;21.49;99431.01;434867;1268;60577;-56
2022/07/13 06:48:26;;;;;;;4.20;2.60;;;;;;;45.02;20.98;99435.73;434882;1268;63883;-57
2022/07/13 06:58:32;;;;;;;4.90;1.60;;;;;;;47.04;19.49;99439.70;434887;1268;60861;-56
2022/07/13 07:08:38;;;;;;;10.40;4.20;;;;;;;47.78;18.55;99442.39;434973;1268;62758;-57
2022/07/13 07:18:44;;;;;;;2.10;2.00;;;;;;;47.73;17.83;99436.20;435061;1267;60699;-61
2022/07/13 07:29:10;;;;;;;2.50;2.40;;;;;;;47.01;17.75;99428.91;435033;1267;60533;-58
2022/07/13 07:39:14;;;;;;;;;;;;;;;43.13;18.38;99417.94;434762;1267;64037;-58
2022/07/13 07:49:20;;;;;;;1.90;1.80;;;;;;;42.06;19.62;99415.98;434779;1267;60537;-58
2022/07/13 07:59:27;;;;;;;2.20;0.80;;;;;;;44.56;19.49;99418.27;434853;1267;72854;-55
2022/07/13 08:09:33;;;;;;;2.90;0.90;;;;;;;39.02;21.19;99421.86;435350;1267;60593;-61
2022/07/13 08:19:38;;;;;;;2.40;1.10;;;;;;;30.67;28.41;99429.30;435421;1268;60892;-58
2022/07/13 08:29:47;;;;;;;0.70;0.50;;;;;;;28.83;31.87;99430.87;435605;1268;72904;-57
2022/07/13 08:39:52;;;;;;;1.30;0.80;;;;;;;27.45;34.45;99439.11;435113;1268;67993;-58
2022/07/13 08:50:04;;;;;;;2.90;1.10;;;;;;;27.18;35.24;99438.70;435096;1266;71632;-62
2022/07/13 09:00:12;;;;;;;1.70;1.30;;;;;;;27.37;35.47;99432.34;434987;1268;60926;-58
2022/07/13 09:10:20;;;;;;;3.20;0.70;;;;;;;27.37;35.58;99433.55;434778;1268;61143;-58
2022/07/13 09:20:25;;;;;;;1.60;0.40;;;;;;;27.16;35.47;99452.14;434860;1267;72878;-58
2022/07/13 09:30:44;;;;;;;1.30;0.80;;;;;;;26.78;35.17;99457.01;434967;1268;68580;-58
2022/07/13 09:40:50;;;;;;;1.70;0.60;;;;;;;26.97;35.23;99459.31;434801;1267;70584;-57
2022/07/13 09:50:56;;;;;;;6.70;0.90;;;;;;;27.11;34.80;99463.52;434787;1267;60962;-60
2022/07/13 10:01:03;;;;;;;1.50;0.50;;;;;;;27.07;34.63;99459.79;435143;1265;60804;-59
2022/07/13 10:11:09;;;;;;;;;;;;;;;26.60;35.28;99454.91;434899;1267;72096;-59
2022/07/13 10:21:24;;;;;;;3.00;0.60;;;;;;;26.82;36.03;99461.17;435376;1268;68346;-59
2022/07/13 10:31:33;;;;;;;0.80;0.80;;;;;;;26.73;36.51;99466.96;435080;1268;71496;-57
2022/07/13 10:41:58;;;;;;;5.40;1.40;;;;;;;27.07;36.75;99452.31;435061;1267;60584;-57
2022/07/13 10:52:52;;;;;;;7.50;1.10;;;;;;;27.23;37.31;99446.45;435191;1267;60716;-58
2022/07/13 11:03:35;;;;;;;1.90;0.70;;;;;;;26.84;37.35;99443.69;434306;1268;72595;-57
2022/07/13 11:13:44;;;;;;;2.70;1.10;;;;;;;26.73;37.74;99451.34;434919;1268;69519;-57
2022/07/13 11:34:23;;;;;;;1.10;0.90;;;;;;;28.08;35.87;99437.09;434917;1268;60562;-59
2022/07/13 11:44:31;;;;;;;0.60;0.60;;;;;;;28.21;34.67;99431.08;435322;1268;62046;-58
2022/07/13 11:54:37;;;;;;;0.70;0.60;;;;;;;27.89;33.77;99425.86;434890;1267;72049;-58
2022/07/13 12:04:49;;;;;;;0.90;0.60;;;;;;;27.60;33.57;99426.09;434874;1268;68362;-57
2022/07/13 12:14:56;;;;;;;0.40;0.40;;;;;;;27.00;33.81;99427.34;435040;1268;71710;-58
2022/07/13 12:25:02;;;;;;;2.10;0.90;;;;;;;26.71;34.04;99421.35;435156;1268;60641;-58
2022/07/13 12:35:16;;;;;;;1.70;0.70;;;;;;;26.97;33.91;99411.52;435385;1267;61225;-58
2022/07/13 12:45:22;;;;;;;0.50;0.40;;;;;;;27.41;33.34;99413.17;435141;1268;72776;-57
2022/07/13 12:55:28;;;;;;;1.60;0.80;;;;;;;27.64;32.54;99407.45;434968;1268;67666;-58
2022/07/13 13:05:36;;;;;;;3.80;1.20;;;;;;;27.70;31.94;99404.09;434860;1268;73105;-58
2022/07/13 13:15:42;;;;;;;1.20;0.70;;;;;;;28.07;31.77;99393.36;435207;1268;60743;-56
2022/07/13 13:25:49;;;;;;;2.00;0.50;;;;;;;28.13;31.56;99410.73;435217;1268;60571;-59
2022/07/13 13:35:55;;;;;;;3.20;1.40;;;;;;;28.22;31.00;99420.80;435093;1266;72604;-55
2022/07/13 13:46:01;;;;;;;4.10;0.70;;;;;;;27.88;30.14;99421.75;435333;1268;68453;-58
2022/07/13 13:56:08;;;;;;;0.90;0.50;;;;;;;27.63;30.85;99424.63;434677;1268;71452;-56
2022/07/13 14:06:14;;;;;;;0.70;0.70;;;;;;;27.75;30.77;99431.91;434408;1268;61411;-57
2022/07/13 14:16:20;;;;;;;0.80;0.70;;;;;;;27.57;31.23;99431.04;434127;1267;60685;-56
2022/07/13 14:26:26;;;;;;;3.00;0.70;;;;;;;27.43;30.98;99423.29;434190;1267;72291;-59
2022/07/13 14:36:31;;;;;;;2.00;0.70;;;;;;;27.26;31.25;99416.58;434356;1267;68504;-56
2022/07/13 14:46:37;;;;;;;0.40;0.40;;;;;;;27.29;31.46;99404.67;433704;1268;72764;-56
2022/07/13 14:56:43;;;;;;;7.90;1.50;;;;;;;27.34;31.93;99409.91;433687;1268;61246;-59
2022/07/13 15:06:50;;;;;;;2.60;1.40;;;;;;;27.39;32.45;99406.79;432878;1267;60579;-56
2022/07/13 15:16:58;;;;;;;7.50;1.10;;;;;;;27.34;32.88;99400.25;437083;1268;72621;-57
2022/07/13 15:27:14;;;;;;;5.80;1.50;;;;;;;27.10;33.12;99405.77;450874;1266;68400;-58
2022/07/13 15:37:19;;;;;;;2.40;1.00;;;;;;;26.94;33.89;99399.50;446286;1267;71942;-58
2022/07/13 15:47:25;;;;;;;3.20;1.00;;;;;;;26.68;34.50;99391.61;432952;1268;61096;-56
2022/07/13 15:57:31;;;;;;;3.50;1.30;;;;;;;26.53;35.01;99398.67;433371;1268;60674;-55
2022/07/13 16:07:38;;;;;;;1.70;0.80;;;;;;;26.54;35.05;99397.05;433740;1268;72712;-58
2022/07/13 16:17:44;;;;;;;1.50;1.00;;;;;;;26.39;35.54;99389.52;447277;1267;70119;-57
2022/07/13 16:27:50;;;;;;;4.10;1.20;;;;;;;26.17;36.04;99391.79;433878;1268;72915;-56
2022/07/13 16:37:56;;;;;;;12.30;2.40;;;;;;;25.95;37.02;99395.80;450241;1266;60595;-57
2022/07/13 16:48:04;;;;;;;4.30;1.20;;;;;;;25.86;37.55;99396.69;433930;1267;60676;-56
2022/07/13 16:58:10;;;;;;;2.50;1.20;;;;;;;25.76;37.86;99385.83;434250;1267;73373;-56
2022/07/13 17:08:16;;;;;;;6.50;1.50;;;;;;;25.48;38.35;99380.14;434151;1267;68404;-56
2022/07/13 17:18:56;;;;;;;8.70;1.80;;;;;;;25.18;38.88;99372.48;434776;1267;71491;-57
2022/07/13 17:28:57;;;;;;;5.70;1.80;;;;;;;25.02;39.70;99359.02;439048;1267;61231;-57
2022/07/13 17:39:04;;;;;;;8.40;4.20;;;;;;;24.80;40.16;99343.86;434282;1267;60484;-58
2022/07/13 17:49:09;;;;;;;5.00;2.70;;;;;;;24.53;41.57;99342.21;434392;1267;71547;-58
2022/07/13 17:59:15;;;;;;;8.20;2.40;;;;;;;24.19;42.29;99350.10;434556;1267;67421;-58
2022/07/13 18:09:21;;;;;;;5.90;1.80;;;;;;;23.92;42.91;99352.73;434618;1267;71671;-57
2022/07/13 18:19:27;;;;;;;7.20;2.20;;;;;;;23.63;44.22;99356.73;434541;1268;60928;-56
2022/07/13 18:29:33;;;;;;;6.10;2.40;;;;;;;23.31;46.15;99347.25;434275;1268;60855;-61
2022/07/13 18:39:39;;;;;;;6.10;2.00;;;;;;;22.99;46.90;99343.36;434786;1267;73962;-57
2022/07/13 18:49:45;;;;;;;7.30;2.20;;;;;;;22.66;47.75;99344.80;434101;1265;69328;-55
2022/07/13 18:59:51;;;;;;;5.80;2.00;;;;;;;22.39;48.67;99344.30;434276;1265;70530;-56
2022/07/13 19:09:57;;;;;;;8.20;2.60;;;;;;;22.14;49.71;99343.69;435431;1264;61241;-55
2022/07/13 19:20:04;;;;;;;6.30;1.70;;;;;;;21.93;50.86;99344.16;434141;1267;61026;-57
2022/07/13 19:30:12;;;;;;;6.50;2.50;;;;;;;21.68;51.42;99350.91;445637;1266;74587;-58
2022/07/13 19:40:18;;;;;;;3.70;2.10;;;;;;;21.51;52.22;99338.90;441996;1266;67481;-59
2022/07/13 19:50:25;;;;;;;5.30;2.50;;;;;;;21.35;52.68;99333.86;435705;1267;71415;-58
2022/07/13 20:00:33;;;;;;;8.30;2.90;;;;;;;21.26;52.80;99334.29;436064;1267;60893;-60
2022/07/13 20:10:40;;;;;;;4.00;2.90;;;;;;;21.16;54.54;99331.08;434123;1267;60571;-58
2022/07/13 20:20:46;;;;;;;6.10;2.50;;;;;;;20.95;55.06;99334.32;433759;1267;72836;-59
2022/07/13 20:30:53;;;;;;;2.60;2.40;;;;;;;20.72;55.23;99330.81;434036;1265;69752;-58
2022/07/13 20:40:59;;;;;;;4.50;2.20;;;;;;;20.53;55.42;99332.77;439516;1266;73358;-55
2022/07/13 20:51:10;;;;;;;6.00;2.90;;;;;;;20.47;54.75;99338.54;434631;1265;61340;-57
2022/07/13 21:01:16;;;;;;;3.00;2.30;;;;;;;20.45;54.32;99339.23;442956;1266;60673;-57
2022/07/13 21:11:22;;;;;;;3.60;2.90;;;;;;;20.48;54.20;99341.44;433548;1267;72692;-57
2022/07/13 21:21:28;;;;;;;4.60;3.20;;;;;;;20.46;54.15;99337.70;434228;1267;69794;-57
2022/07/13 21:31:34;;;;;;;3.20;2.60;;;;;;;20.38;53.75;99332.21;433849;1267;71570;-57
2022/07/13 21:41:40;;;;;;;3.80;2.50;;;;;;;20.33;53.74;99332.06;433840;1266;60934;-56
2022/07/13 21:51:47;;;;;;;3.60;2.20;;;;;;;20.32;53.16;99334.54;433976;1267;60736;-57
2022/07/13 22:01:53;;;;;;;2.30;2.10;;;;;;;20.24;52.99;99330.49;438595;1267;72814;-56
2022/07/13 22:12:34;;;;;;;6.10;3.20;;;;;;;20.14;52.88;99326.95;433511;1267;67218;-57
2022/07/13 22:23:15;;;;;;;3.80;2.70;;;;;;;19.97;52.93;99335.35;434211;1265;71649;-56
2022/07/13 22:33:55;;;;;;;2.70;2.30;;;;;;;19.83;52.67;99334.56;434535;1266;60829;-56
2022/07/13 22:44:36;;;;;;;5.10;3.20;;;;;;;19.63;52.61;99322.08;434316;1267;60881;-55
2022/07/13 22:55:16;;;;;;;3.10;2.70;;;;;;;19.35;52.51;99315.83;434430;1266;73161;-57
2022/07/13 23:05:57;;;;;;;2.90;2.60;;;;;;;19.06;53.03;99318.80;436565;1267;68462;-56
2022/07/13 23:16:37;;;;;;;4.60;3.00;;;;;;;18.79;53.30;99318.17;434132;1267;72321;-55
2022/07/13 23:27:18;;;;;;;5.20;3.00;;;;;;;18.56;53.88;99321.94;433896;1266;429865;-56
2022/07/13 23:37:25;;;;;;;3.00;2.70;;;;;;;18.32;54.78;99316.73;433898;1267;60572;-54
2022/07/13 23:47:31;;;;;;;3.40;2.50;;;;;;;18.14;54.66;99323.25;434281;1267;73943;-56
2022/07/13 23:57:37;;;;;;;3.50;3.00;;;;;;;17.96;54.87;99318.69;434234;1267;69359;-57
